createdAt,value
2022-07-25T00:01:44.466Z,100.00
2022-07-25T00:04:16.235Z,100.00
2022-07-25T00:06:44.880Z,100.00
2022-07-25T00:09:12.941Z,100.00
2022-07-25T00:11:43.106Z,100.00
2022-07-25T00:14:11.178Z,100.00
2022-07-25T00:16:39.450Z,100.00
2022-07-25T00:19:07.712Z,100.00
2022-07-25T00:21:37.126Z,100.00
2022-07-25T00:24:08.193Z,100.00
2022-07-25T00:26:40.427Z,100.00
2022-07-25T00:29:08.652Z,100.00
2022-07-25T00:31:38.856Z,100.00
2022-07-25T00:34:07.368Z,100.00
2022-07-25T00:36:37.008Z,100.00
2022-07-25T00:39:07.359Z,100.00
2022-07-25T00:41:35.370Z,100.00
2022-07-25T00:44:03.682Z,100.00
2022-07-25T00:46:31.955Z,100.00
2022-07-25T00:49:00.238Z,100.00
2022-07-25T00:51:28.433Z,100.00
2022-07-25T00:54:00.231Z,100.00
2022-07-25T00:56:28.303Z,100.00
2022-07-25T00:58:56.350Z,100.00
2022-07-25T01:01:24.455Z,100.00
2022-07-25T01:03:53.004Z,100.00
2022-07-25T01:06:21.679Z,100.00
2022-07-25T01:08:52.907Z,100.00
2022-07-25T01:11:22.334Z,100.00
2022-07-25T01:13:50.392Z,100.00
2022-07-25T01:16:20.979Z,100.00
2022-07-25T01:18:49.078Z,100.00
2022-07-25T01:21:18.523Z,100.00
2022-07-25T01:23:46.573Z,100.00
2022-07-25T01:26:14.625Z,100.00
2022-07-25T01:28:42.731Z,100.00
2022-07-25T01:31:10.915Z,100.00
2022-07-25T01:33:39.020Z,100.00
2022-07-25T01:36:07.215Z,100.00
2022-07-25T01:38:36.609Z,100.00
2022-07-25T01:41:04.687Z,100.00
2022-07-25T01:43:32.836Z,100.00
2022-07-25T01:46:00.922Z,100.00
2022-07-25T01:48:29.153Z,100.00
2022-07-25T01:50:57.212Z,100.00
2022-07-25T01:53:25.244Z,100.00
2022-07-25T01:55:55.650Z,100.00
2022-07-25T01:58:25.509Z,100.00
2022-07-25T02:00:53.586Z,100.00
2022-07-25T02:03:33.749Z,100.00
2022-07-25T02:06:02.906Z,100.00
2022-07-25T02:08:30.933Z,100.00
2022-07-25T02:11:02.742Z,100.00
2022-07-25T02:13:30.759Z,100.00
2022-07-25T02:15:58.783Z,100.00
2022-07-25T02:18:26.824Z,100.00
2022-07-25T02:20:54.955Z,100.00
2022-07-25T02:23:23.059Z,100.00
2022-07-25T02:25:51.113Z,100.00
2022-07-25T02:28:20.480Z,100.00
2022-07-25T02:30:48.547Z,100.00
2022-07-25T02:33:16.598Z,100.00
2022-07-25T02:35:44.724Z,100.00
2022-07-25T02:38:19.404Z,100.00
2022-07-25T02:40:47.496Z,100.00
2022-07-25T02:43:15.528Z,100.00
2022-07-25T02:45:45.361Z,100.00
2022-07-25T02:48:14.022Z,100.00
2022-07-25T02:50:42.107Z,100.00
2022-07-25T02:53:10.139Z,100.00
2022-07-25T02:55:38.162Z,100.00
2022-07-25T02:58:06.219Z,100.00
2022-07-25T03:00:34.633Z,100.00
2022-07-25T03:03:04.424Z,100.00
2022-07-25T03:05:33.207Z,100.00
2022-07-25T03:08:03.511Z,100.00
2022-07-25T03:10:31.572Z,100.00
2022-07-25T03:12:59.577Z,100.00
2022-07-25T03:15:27.603Z,100.00
2022-07-25T03:17:55.651Z,100.00
2022-07-25T03:20:25.212Z,100.00
2022-07-25T03:22:53.271Z,100.00
2022-07-25T03:25:21.923Z,100.00
2022-07-25T03:27:50.674Z,100.00
2022-07-25T03:30:18.736Z,100.00
2022-07-25T03:32:46.764Z,100.00
2022-07-25T03:35:15.414Z,100.00
2022-07-25T03:37:45.548Z,100.00
2022-07-25T03:40:14.354Z,100.00
2022-07-25T03:42:43.967Z,100.00
2022-07-25T03:45:12.159Z,100.00
2022-07-25T03:47:40.183Z,100.00
2022-07-25T03:50:08.399Z,100.00
2022-07-25T03:52:38.299Z,100.00
2022-07-25T03:55:09.031Z,100.00
2022-07-25T03:57:37.601Z,100.00
2022-07-25T04:00:07.180Z,100.00
2022-07-25T04:02:35.655Z,100.00
2022-07-25T04:05:04.311Z,100.00
2022-07-25T04:07:32.286Z,100.00
2022-07-25T04:10:00.359Z,100.00
2022-07-25T04:12:29.985Z,100.00
2022-07-25T04:14:58.190Z,100.00
2022-07-25T04:17:26.300Z,100.00
2022-07-25T04:19:56.821Z,100.00
2022-07-25T04:22:24.840Z,100.00
2022-07-25T04:24:52.882Z,100.00
2022-07-25T04:27:20.975Z,100.00
2022-07-25T04:29:50.672Z,100.00
2022-07-25T04:32:23.346Z,100.00
2022-07-25T04:34:52.223Z,100.00
2022-07-25T04:37:20.510Z,100.00
2022-07-25T04:39:48.573Z,100.00
2022-07-25T04:42:16.619Z,100.00
2022-07-25T04:44:44.677Z,100.00
2022-07-25T04:47:14.065Z,100.00
2022-07-25T04:49:42.077Z,100.00
2022-07-25T04:52:10.202Z,100.00
2022-07-25T04:54:38.336Z,100.00
2022-07-25T04:57:06.379Z,100.00
2022-07-25T04:59:36.736Z,100.00
2022-07-25T05:02:04.916Z,100.00
2022-07-25T05:04:36.596Z,100.00
2022-07-25T05:07:15.294Z,100.00
2022-07-25T05:09:43.373Z,100.00
2022-07-25T05:12:14.091Z,100.00
2022-07-25T05:14:42.126Z,100.00
2022-07-25T05:17:10.222Z,100.00
2022-07-25T05:19:40.060Z,100.00
2022-07-25T05:22:08.154Z,100.00
2022-07-25T05:24:38.654Z,100.00
2022-07-25T05:27:08.850Z,100.00
2022-07-25T05:29:36.911Z,100.00
2022-07-25T05:32:05.308Z,100.00
2022-07-25T05:34:35.828Z,100.00
2022-07-25T05:37:05.320Z,100.00
2022-07-25T05:39:33.441Z,100.00
2022-07-25T05:42:01.483Z,100.00
2022-07-25T05:44:29.724Z,100.00
2022-07-25T05:46:58.041Z,99.32
2022-07-25T05:49:26.383Z,88.45
2022-07-25T05:51:54.450Z,96.65
2022-07-25T05:54:24.390Z,80.62
2022-07-25T05:56:55.639Z,80.92
2022-07-25T05:59:23.720Z,69.74
2022-07-25T06:01:51.776Z,75.28
2022-07-25T06:04:27.028Z,60.93
2022-07-25T06:06:55.412Z,68.81
2022-07-25T06:09:24.989Z,73.20
2022-07-25T06:12:00.316Z,68.06
2022-07-25T06:14:30.010Z,66.56
2022-07-25T06:17:00.652Z,63.25
2022-07-25T06:19:31.256Z,67.36
2022-07-25T06:21:59.347Z,67.31
2022-07-25T06:24:28.970Z,67.23
2022-07-25T06:26:57.105Z,65.97
2022-07-25T06:29:25.430Z,62.87
2022-07-25T06:31:54.802Z,69.22
2022-07-25T06:34:25.769Z,62.89
2022-07-25T06:36:57.433Z,67.19
2022-07-25T06:39:28.083Z,67.66
2022-07-25T06:41:59.645Z,82.55
2022-07-25T06:44:35.143Z,92.24
2022-07-25T06:47:03.418Z,94.13
2022-07-25T06:49:31.539Z,88.66
2022-07-25T06:51:59.693Z,89.67
2022-07-25T06:54:27.812Z,89.33
2022-07-25T06:56:57.545Z,89.86
2022-07-25T06:59:26.130Z,87.99
2022-07-25T07:01:54.289Z,83.47
2022-07-25T07:04:24.764Z,78.64
2022-07-25T07:06:52.871Z,78.31
2022-07-25T07:09:21.003Z,71.79
2022-07-25T07:11:49.135Z,66.10
2022-07-25T07:14:21.119Z,63.90
2022-07-25T07:16:51.316Z,65.29
2022-07-25T07:19:19.431Z,65.23
2022-07-25T07:21:49.925Z,63.34
2022-07-25T07:24:23.679Z,64.19
2022-07-25T07:26:53.454Z,64.67
2022-07-25T07:29:23.026Z,61.38
2022-07-25T07:31:53.448Z,60.89
2022-07-25T07:34:24.947Z,64.05
2022-07-25T07:36:55.397Z,61.64
2022-07-25T07:39:23.514Z,63.44
2022-07-25T07:41:52.108Z,61.26
2022-07-25T07:44:20.491Z,58.88
2022-07-25T07:46:50.373Z,59.78
2022-07-25T07:49:18.578Z,56.64
2022-07-25T07:51:46.743Z,55.65
2022-07-25T07:54:32.202Z,56.09
2022-07-25T07:57:00.264Z,56.23
2022-07-25T07:59:28.360Z,53.51
2022-07-25T08:01:57.885Z,52.89
2022-07-25T08:04:26.003Z,53.14
2022-07-25T08:06:56.140Z,54.71
2022-07-25T08:09:25.720Z,55.97
2022-07-25T08:11:54.236Z,56.42
2022-07-25T08:14:22.370Z,53.44
2022-07-25T08:16:52.600Z,51.91
2022-07-25T08:19:22.581Z,54.13
2022-07-25T08:21:50.739Z,54.81
2022-07-25T08:24:18.789Z,49.87
2022-07-25T08:26:46.958Z,49.01
2022-07-25T08:29:20.584Z,49.00
2022-07-25T08:31:50.173Z,50.15
2022-07-25T08:34:19.495Z,52.09
2022-07-25T08:36:51.343Z,50.17
2022-07-25T08:39:19.471Z,53.89
2022-07-25T08:41:50.692Z,50.36
2022-07-25T08:44:19.710Z,48.41
2022-07-25T08:46:49.064Z,47.49
2022-07-25T08:49:17.363Z,47.12
2022-07-25T08:51:45.911Z,48.59
2022-07-25T08:54:15.407Z,46.95
2022-07-25T08:56:44.255Z,47.72
2022-07-25T08:59:14.602Z,47.64
2022-07-25T09:01:42.900Z,48.26
2022-07-25T09:04:11.364Z,47.72
2022-07-25T09:06:49.605Z,47.42
2022-07-25T09:09:19.562Z,46.22
2022-07-25T09:11:47.882Z,46.80
2022-07-25T09:14:15.989Z,47.16
2022-07-25T09:16:45.163Z,45.98
2022-07-25T09:19:14.535Z,45.52
2022-07-25T09:21:44.101Z,46.11
2022-07-25T09:24:16.857Z,45.05
2022-07-25T09:26:54.421Z,42.58
2022-07-25T09:29:24.636Z,42.87
2022-07-25T09:31:53.868Z,42.57
2022-07-25T09:34:35.585Z,42.51
2022-07-25T09:37:04.691Z,40.78
2022-07-25T09:39:46.067Z,41.14
2022-07-25T09:42:17.265Z,40.80
2022-07-25T09:44:45.415Z,41.45
2022-07-25T09:47:14.877Z,41.29
2022-07-25T09:49:43.812Z,40.50
2022-07-25T09:52:12.378Z,40.61
2022-07-25T09:54:41.056Z,40.42
2022-07-25T09:57:11.532Z,42.78
2022-07-25T09:59:41.141Z,42.18
2022-07-25T10:02:10.500Z,42.12
2022-07-25T10:04:44.655Z,41.44
2022-07-25T10:07:15.436Z,40.48
2022-07-25T10:09:44.988Z,39.90
2022-07-25T10:12:14.800Z,40.69
2022-07-25T10:14:44.291Z,38.75
2022-07-25T10:17:21.538Z,40.61
2022-07-25T10:19:53.169Z,41.62
2022-07-25T10:22:46.604Z,38.74
2022-07-25T10:25:13.329Z,37.32
2022-07-25T10:27:43.415Z,38.55
2022-07-25T10:30:23.141Z,35.87
2022-07-25T10:32:51.621Z,39.01
2022-07-25T10:35:22.004Z,37.76
2022-07-25T10:37:51.902Z,36.34
2022-07-25T10:40:30.076Z,37.41
2022-07-25T10:43:02.315Z,36.67
2022-07-25T10:45:42.089Z,35.59
2022-07-25T10:48:11.629Z,35.67
2022-07-25T10:50:57.389Z,34.63
2022-07-25T10:53:29.771Z,33.98
2022-07-25T10:56:05.610Z,35.06
2022-07-25T10:58:48.721Z,35.34
2022-07-25T11:01:22.431Z,35.47
2022-07-25T11:03:50.773Z,35.12
2022-07-25T11:06:31.336Z,34.10
2022-07-25T11:09:01.271Z,32.98
2022-07-25T11:11:40.389Z,34.39
2022-07-25T11:14:15.224Z,32.06
2022-07-25T11:16:44.948Z,35.43
2022-07-25T11:19:20.483Z,33.39
2022-07-25T11:21:49.369Z,32.36
2022-07-25T11:24:17.512Z,33.45
2022-07-25T11:26:46.431Z,33.42
2022-07-25T11:29:21.729Z,32.93
2022-07-25T11:31:54.538Z,33.42
2022-07-25T11:34:24.194Z,32.34
2022-07-25T11:36:55.156Z,34.12
2022-07-25T11:39:23.570Z,33.35
2022-07-25T11:41:59.480Z,32.92
2022-07-25T11:44:34.789Z,33.83
2022-07-25T11:47:05.184Z,33.23
2022-07-25T11:49:33.897Z,34.43
2022-07-25T11:52:02.073Z,34.88
2022-07-25T11:54:30.109Z,33.87
2022-07-25T11:56:58.162Z,33.99
2022-07-25T11:59:26.354Z,34.32
2022-07-25T12:01:54.478Z,34.23
2022-07-25T12:04:26.216Z,34.75
2022-07-25T12:07:04.436Z,34.99
2022-07-25T12:09:34.666Z,34.06
2022-07-25T12:12:04.291Z,35.28
2022-07-25T12:14:35.395Z,35.11
2022-07-25T12:17:03.717Z,33.82
2022-07-25T12:19:33.180Z,34.18
2022-07-25T12:22:01.242Z,34.61
2022-07-25T12:24:29.384Z,35.37
2022-07-25T12:26:57.488Z,37.48
2022-07-25T12:29:25.569Z,36.61
2022-07-25T12:31:53.731Z,35.78
2022-07-25T12:34:21.918Z,36.12
2022-07-25T12:36:52.955Z,35.84
2022-07-25T12:39:21.741Z,36.30
2022-07-25T12:41:49.809Z,35.54
2022-07-25T12:44:17.850Z,35.82
2022-07-25T12:46:49.436Z,36.48
2022-07-25T12:49:18.084Z,36.09
2022-07-25T12:51:48.574Z,37.41
2022-07-25T12:54:22.202Z,36.76
2022-07-25T12:56:53.049Z,35.62
2022-07-25T12:59:21.204Z,35.89
2022-07-25T13:01:49.567Z,35.34
2022-07-25T13:04:20.612Z,35.01
2022-07-25T13:06:48.698Z,35.28
2022-07-25T13:09:18.159Z,34.37
2022-07-25T13:11:46.199Z,34.79
2022-07-25T13:14:16.001Z,35.63
2022-07-25T13:16:44.214Z,37.03
2022-07-25T13:19:12.963Z,35.37
2022-07-25T13:21:41.185Z,35.57
2022-07-25T13:24:09.420Z,35.79
2022-07-25T13:26:39.335Z,35.68
2022-07-25T13:29:08.652Z,37.22
2022-07-25T13:31:38.153Z,36.15
2022-07-25T13:34:06.561Z,35.96
2022-07-25T13:36:34.960Z,35.52
2022-07-25T13:39:03.285Z,35.22
2022-07-25T13:41:34.499Z,37.28
2022-07-25T13:44:04.288Z,36.38
2022-07-25T13:46:32.360Z,38.05
2022-07-25T13:49:00.435Z,38.30
2022-07-25T13:51:28.516Z,37.76
2022-07-25T13:53:56.544Z,42.33
2022-07-25T13:56:24.760Z,43.82
2022-07-25T13:58:52.884Z,41.48
2022-07-25T14:01:26.622Z,40.22
2022-07-25T14:03:54.755Z,37.23
2022-07-25T14:06:25.188Z,35.04
2022-07-25T14:08:53.256Z,36.89
2022-07-25T14:11:21.339Z,36.75
2022-07-25T14:13:49.516Z,39.11
2022-07-25T14:16:20.183Z,38.98
2022-07-25T14:18:50.670Z,37.32
2022-07-25T14:21:18.765Z,37.86
2022-07-25T14:23:46.922Z,38.48
2022-07-25T14:26:15.055Z,37.24
2022-07-25T14:28:43.575Z,35.98
2022-07-25T14:31:14.021Z,36.47
2022-07-25T14:33:42.132Z,35.85
2022-07-25T14:36:13.803Z,35.84
2022-07-25T14:38:47.251Z,36.81
2022-07-25T14:41:17.543Z,37.90
2022-07-25T14:43:47.771Z,38.12
2022-07-25T14:46:16.256Z,36.98
2022-07-25T14:48:44.459Z,38.21
2022-07-25T14:51:13.913Z,38.50
2022-07-25T14:53:42.002Z,38.98
2022-07-25T14:56:10.325Z,39.60
2022-07-25T14:58:39.520Z,41.33
2022-07-25T15:01:11.109Z,44.46
2022-07-25T15:03:39.425Z,48.08
2022-07-25T15:06:09.829Z,49.31
2022-07-25T15:08:39.922Z,47.87
2022-07-25T15:11:09.526Z,48.91
2022-07-25T15:13:37.595Z,46.88
2022-07-25T15:16:06.052Z,47.33
2022-07-25T15:18:58.593Z,46.66
2022-07-25T15:21:25.079Z,47.49
2022-07-25T15:23:54.614Z,50.08
2022-07-25T15:26:23.803Z,49.84
2022-07-25T15:28:51.895Z,49.12
2022-07-25T15:31:21.333Z,46.72
2022-07-25T15:33:49.495Z,45.60
2022-07-25T15:36:21.255Z,45.69
2022-07-25T15:38:51.502Z,48.22
2022-07-25T15:41:20.939Z,45.15
2022-07-25T15:43:49.013Z,45.66
2022-07-25T15:46:17.399Z,46.01
2022-07-25T15:48:45.654Z,44.08
2022-07-25T15:51:16.474Z,42.90
2022-07-25T15:53:44.667Z,43.06
2022-07-25T15:56:14.808Z,42.94
2022-07-25T15:58:44.381Z,42.44
2022-07-25T16:01:12.476Z,41.30
2022-07-25T16:03:40.707Z,40.83
2022-07-25T16:06:09.275Z,41.19
2022-07-25T16:08:37.595Z,41.80
2022-07-25T16:11:05.959Z,40.21
2022-07-25T16:13:34.081Z,41.24
2022-07-25T16:16:03.703Z,40.85
2022-07-25T16:18:32.421Z,39.95
2022-07-25T16:21:00.527Z,39.07
2022-07-25T16:23:33.917Z,38.88
2022-07-25T16:26:04.434Z,39.04
2022-07-25T16:28:32.472Z,38.69
2022-07-25T16:31:00.597Z,39.45
2022-07-25T16:33:32.422Z,39.97
2022-07-25T16:36:00.469Z,38.65
2022-07-25T16:38:28.875Z,38.48
2022-07-25T16:40:56.941Z,39.03
2022-07-25T16:43:25.024Z,39.74
2022-07-25T16:45:53.087Z,40.51
2022-07-25T16:48:21.077Z,39.94
2022-07-25T16:50:50.483Z,38.66
2022-07-25T16:53:18.853Z,40.14
2022-07-25T16:55:47.008Z,41.27
2022-07-25T16:58:15.065Z,42.63
2022-07-25T17:00:43.740Z,42.74
2022-07-25T17:03:11.993Z,42.60
2022-07-25T17:05:40.961Z,42.62
2022-07-25T17:08:10.633Z,43.60
2022-07-25T17:10:38.693Z,41.80
2022-07-25T17:13:06.726Z,40.05
2022-07-25T17:15:34.863Z,39.93
2022-07-25T17:18:05.343Z,39.88
2022-07-25T17:20:33.369Z,40.23
2022-07-25T17:23:01.481Z,40.27
2022-07-25T17:25:30.905Z,40.50
2022-07-25T17:28:01.104Z,42.73
2022-07-25T17:30:29.248Z,43.00
2022-07-25T17:32:58.524Z,43.60
2022-07-25T17:35:26.734Z,43.91
2022-07-25T17:37:54.904Z,45.95
2022-07-25T17:40:23.020Z,45.86
2022-07-25T17:42:52.469Z,45.18
2022-07-25T17:45:20.591Z,45.47
2022-07-25T17:47:48.778Z,46.76
2022-07-25T17:50:17.497Z,46.33
2022-07-25T17:52:46.073Z,47.03
2022-07-25T17:55:14.134Z,47.70
2022-07-25T17:57:43.541Z,48.06
2022-07-25T18:00:14.110Z,47.47
2022-07-25T18:02:42.581Z,47.61
2022-07-25T18:05:10.799Z,48.38
2022-07-25T18:07:40.678Z,49.14
2022-07-25T18:10:11.024Z,49.44
2022-07-25T18:12:39.181Z,49.91
2022-07-25T18:15:08.186Z,49.83
2022-07-25T18:17:40.404Z,50.64
2022-07-25T18:20:09.188Z,50.08
2022-07-25T18:22:41.086Z,50.08
2022-07-25T18:25:10.937Z,49.36
2022-07-25T18:27:39.356Z,49.26
2022-07-25T18:30:08.093Z,50.10
2022-07-25T18:32:36.285Z,49.21
2022-07-25T18:35:06.741Z,48.01
2022-07-25T18:37:34.880Z,48.38
2022-07-25T18:40:02.920Z,48.44
2022-07-25T18:42:30.978Z,48.88
2022-07-25T18:44:59.111Z,49.07
2022-07-25T18:47:49.628Z,49.26
2022-07-25T18:50:20.435Z,50.55
2022-07-25T18:52:48.661Z,50.68
2022-07-25T18:55:18.749Z,50.63
2022-07-25T18:57:47.067Z,50.98
2022-07-25T19:00:15.451Z,51.35
2022-07-25T19:02:43.548Z,52.17
2022-07-25T19:05:14.479Z,51.25
2022-07-25T19:07:44.039Z,52.04
2022-07-25T19:10:12.237Z,51.77
2022-07-25T19:12:41.400Z,51.94
2022-07-25T19:15:11.886Z,51.88
2022-07-25T19:17:40.017Z,52.44
2022-07-25T19:20:11.182Z,52.96
2022-07-25T19:22:39.304Z,52.75
2022-07-25T19:25:10.878Z,52.69
2022-07-25T19:27:40.914Z,53.86
2022-07-25T19:30:13.924Z,53.91
2022-07-25T19:32:48.224Z,53.84
2022-07-25T19:35:24.104Z,53.71
2022-07-25T19:37:54.207Z,53.93
2022-07-25T19:40:23.974Z,53.57
2022-07-25T19:42:52.048Z,53.68
2022-07-25T19:45:20.146Z,54.21
2022-07-25T19:47:48.370Z,54.58
2022-07-25T19:50:16.632Z,55.01
2022-07-25T19:52:44.709Z,56.02
2022-07-25T19:55:12.870Z,55.67
2022-07-25T19:57:42.537Z,56.64
2022-07-25T20:00:11.235Z,56.82
2022-07-25T20:02:43.182Z,57.23
2022-07-25T20:05:11.724Z,57.88
2022-07-25T20:07:39.838Z,58.15
2022-07-25T20:10:08.559Z,57.81
2022-07-25T20:12:36.649Z,58.73
2022-07-25T20:15:06.931Z,57.98
2022-07-25T20:17:35.273Z,59.08
2022-07-25T20:20:03.419Z,57.95
2022-07-25T20:22:37.237Z,60.20
2022-07-25T20:25:08.647Z,58.96
2022-07-25T20:27:37.343Z,58.94
2022-07-25T20:30:08.124Z,58.66
2022-07-25T20:32:36.304Z,62.35
2022-07-25T20:35:05.859Z,60.65
2022-07-25T20:37:33.936Z,62.91
2022-07-25T20:40:07.016Z,60.42
2022-07-25T20:42:37.641Z,63.06
2022-07-25T20:45:07.804Z,65.34
2022-07-25T20:47:35.915Z,64.80
2022-07-25T20:50:03.971Z,64.98
2022-07-25T20:52:34.447Z,66.49
2022-07-25T20:55:06.969Z,66.98
2022-07-25T20:57:37.288Z,67.16
2022-07-25T21:00:07.445Z,64.50
2022-07-25T21:02:35.663Z,63.75
2022-07-25T21:05:04.992Z,64.10
2022-07-25T21:07:33.072Z,64.56
2022-07-25T21:10:01.213Z,65.59
2022-07-25T21:12:32.553Z,66.01
2022-07-25T21:15:01.585Z,68.26
2022-07-25T21:17:30.996Z,66.65
2022-07-25T21:19:59.172Z,67.06
2022-07-25T21:22:27.674Z,67.84
2022-07-25T21:24:55.740Z,68.53
2022-07-25T21:27:23.778Z,70.45
2022-07-25T21:29:54.188Z,72.98
2022-07-25T21:32:23.236Z,73.10
2022-07-25T21:34:52.835Z,72.66
2022-07-25T21:37:20.875Z,73.84
2022-07-25T21:39:48.939Z,72.38
2022-07-25T21:44:45.333Z,71.83
2022-07-25T21:47:16.089Z,72.80
2022-07-25T21:50:04.031Z,75.14
2022-07-25T21:52:35.024Z,73.00
2022-07-25T21:55:06.159Z,71.03
2022-07-25T21:57:34.230Z,72.24
2022-07-25T22:02:37.213Z,71.99
2022-07-25T22:05:05.780Z,73.38
2022-07-25T22:07:33.887Z,76.12
2022-07-25T22:10:04.338Z,74.77
2022-07-25T22:12:32.476Z,70.77
2022-07-25T22:15:00.532Z,70.76
2022-07-25T22:17:48.481Z,70.79
2022-07-25T22:20:19.517Z,72.11
2022-07-25T22:22:48.135Z,70.83
2022-07-25T22:25:16.614Z,72.75
2022-07-25T22:27:45.438Z,72.19
2022-07-25T22:30:18.796Z,73.48
2022-07-25T22:32:47.345Z,74.53
2022-07-25T22:35:15.453Z,74.94
2022-07-25T22:37:44.946Z,76.10
2022-07-25T22:40:13.644Z,78.66
2022-07-25T22:42:41.735Z,78.74
2022-07-25T22:45:10.228Z,79.46
2022-07-25T22:47:38.309Z,80.11
2022-07-25T22:50:07.194Z,81.53
2022-07-25T22:52:35.924Z,81.02
2022-07-25T22:55:08.300Z,83.95
2022-07-25T22:57:37.002Z,85.34
2022-07-25T23:00:07.382Z,86.11
2022-07-25T23:02:35.592Z,85.98
2022-07-25T23:05:03.890Z,91.69
2022-07-25T23:07:31.973Z,88.30
2022-07-25T23:10:00.363Z,87.68
2022-07-25T23:12:29.843Z,93.69
2022-07-25T23:14:57.891Z,90.21
2022-07-25T23:17:25.957Z,87.57
2022-07-25T23:19:55.731Z,87.38
2022-07-25T23:22:24.486Z,88.71
2022-07-25T23:24:52.538Z,82.82
2022-07-25T23:27:20.754Z,83.89
2022-07-25T23:29:50.168Z,84.44
2022-07-25T23:32:18.696Z,85.33
2022-07-25T23:34:46.796Z,86.59
2022-07-25T23:37:14.873Z,85.26
2022-07-25T23:39:42.956Z,88.23
2022-07-25T23:42:11.054Z,87.13
2022-07-25T23:44:39.531Z,87.07
2022-07-25T23:47:10.066Z,88.04
2022-07-25T23:49:39.245Z,88.05
2022-07-25T23:52:09.912Z,87.91
2022-07-25T23:54:40.443Z,88.26
2022-07-25T23:57:08.921Z,86.80
2022-07-25T23:59:37.134Z,86.84
